Time;durP1;ratioP1;P1;durP2;ratioP2;P2;SDS_P1;SDS_P2;PMS_P1;PMS_P2;Temp;Humidity;BMP_temperature;BMP_pressure;BME280_temperature;BME280_humidity;BME280_pressure;Samples;Min_cycle;Max_cycle;Signal;HPM_P1;HPM_P2
2022/01/28 00:01:02;;;;;;;18.85;3.58;;;4.70;99.90;;;;;;4966254;28;20048;-46
2022/01/28 00:03:31;;;;;;;23.58;4.32;;;4.70;99.90;;;;;;4936528;28;20047;-48
2022/01/28 00:05:57;;;;;;;17.77;3.17;;;4.70;99.90;;;;;;4952540;28;20047;-46
2022/01/28 00:08:24;;;;;;;17.55;3.05;;;4.70;99.90;;;;;;4948878;28;20062;-61
2022/01/28 00:10:52;;;;;;;13.27;2.55;;;4.80;99.90;;;;;;4963683;28;20061;-62
2022/01/28 00:13:24;;;;;;;13.15;2.95;;;4.70;99.90;;;;;;4961430;28;20811;-62
2022/01/28 00:38:00;;;;;;;11.68;2.95;;;4.60;99.90;;;;;;4979371;28;20043;-63
2022/01/28 00:40:15;;;;;;;12.98;2.95;;;4.70;99.90;;;;;;4957765;28;20058;-47
2022/01/28 00:42:41;;;;;;;18.10;3.15;;;4.70;99.90;;;;;;4960845;28;20039;-62
2022/01/28 00:45:08;;;;;;;14.93;3.10;;;4.80;99.90;;;;;;4952571;28;20563;-62
2022/01/28 00:47:34;;;;;;;18.92;3.58;;;4.70;99.90;;;;;;4959169;28;20051;-62
2022/01/28 00:50:00;;;;;;;12.80;2.83;;;4.80;99.90;;;;;;4955427;28;20525;-46
2022/01/28 00:52:26;;;;;;;18.05;3.67;;;4.90;99.90;;;;;;4949282;28;20047;-46
2022/01/28 00:54:53;;;;;;;13.20;2.95;;;5.00;99.90;;;;;;4954483;28;20047;-62
2022/01/28 00:57:19;;;;;;;21.58;3.47;;;5.00;99.90;;;;;;4950295;28;20058;-62
2022/01/28 00:59:45;;;;;;;14.02;3.25;;;4.90;99.90;;;;;;5014973;28;20039;-62
2022/01/28 01:02:11;;;;;;;19.17;4.43;;;4.90;99.90;;;;;;4963379;28;20512;-62
2022/01/28 01:04:37;;;;;;;17.63;3.25;;;4.80;99.90;;;;;;4953516;28;20066;-62
2022/01/28 01:07:03;;;;;;;17.52;3.05;;;4.80;99.90;;;;;;4967839;28;20549;-62
2022/01/28 01:09:29;;;;;;;18.33;2.80;;;4.70;99.90;;;;;;4967694;28;20047;-62
2022/01/28 01:11:55;;;;;;;15.80;3.10;;;4.60;99.90;;;;;;4963181;28;20058;-62
2022/01/28 01:14:21;;;;;;;16.75;3.30;;;4.50;99.90;;;;;;4957528;28;20506;-62
2022/01/28 01:17:11;;;;;;;18.17;3.20;;;4.60;99.90;;;;;;4957145;28;20057;-62
2022/01/28 01:19:42;;;;;;;24.25;3.78;;;4.40;99.90;;;;;;4957723;28;20499;-62
2022/01/28 01:22:10;;;;;;;22.58;5.13;;;4.50;99.90;;;;;;4986668;28;20046;-63
2022/01/28 01:24:47;;;;;;;20.27;4.03;;;4.40;99.90;;;;;;4982812;28;20041;-62
2022/01/28 01:27:13;;;;;;;16.10;3.55;;;4.50;99.90;;;;;;4999275;28;20147;-62
2022/01/28 01:29:43;;;;;;;11.98;2.95;;;4.40;99.90;;;;;;4999682;28;20055;-62
2022/01/28 01:32:14;;;;;;;19.15;3.67;;;4.30;99.90;;;;;;5011259;28;20057;-66
2022/01/28 01:34:40;;;;;;;23.25;3.90;;;4.30;99.90;;;;;;4947416;28;20051;-62
2022/01/28 01:37:10;;;;;;;20.10;4.25;;;4.30;99.90;;;;;;4969411;28;20417;-62
2022/01/28 01:39:38;;;;;;;19.40;3.65;;;4.40;99.90;;;;;;4954926;28;20051;-62
2022/01/28 01:42:21;;;;;;;25.17;4.00;;;4.40;99.90;;;;;;4965304;28;20150;-62
2022/01/28 01:45:14;;;;;;;13.18;3.00;;;4.60;99.90;;;;;;4962907;28;20055;-62
2022/01/28 01:53:09;;;;;;;14.32;3.55;;;4.60;99.90;;;;;;4962400;28;20491;-62
2022/01/28 01:55:35;;;;;;;10.95;2.90;;;4.60;99.90;;;;;;4949487;28;20442;-62
2022/01/28 01:58:02;;;;;;;21.38;3.85;;;4.60;99.90;;;;;;4947216;28;20533;-62
2022/01/28 02:00:28;;;;;;;17.88;3.10;;;4.70;99.90;;;;;;4963695;28;20038;-62
2022/01/28 02:02:54;;;;;;;18.67;3.63;;;4.70;99.90;;;;;;4976687;28;20050;-62
2022/01/28 02:05:20;;;;;;;13.85;3.42;;;4.70;99.90;;;;;;4954856;28;20047;-62
2022/01/28 02:07:47;;;;;;;18.63;4.18;;;4.60;99.90;;;;;;4951335;28;20046;-62
2022/01/28 02:10:14;;;;;;;16.85;3.35;;;4.60;99.90;;;;;;4967388;28;20108;-62
2022/01/28 02:12:49;;;;;;;12.93;3.13;;;4.60;99.90;;;;;;4957614;28;20450;-62
2022/01/28 02:15:16;;;;;;;20.48;3.55;;;4.60;99.90;;;;;;4971430;28;20043;-62
2022/01/28 02:17:42;;;;;;;18.77;3.75;;;4.70;99.90;;;;;;4966333;28;20054;-62
2022/01/28 02:20:17;;;;;;;18.88;3.80;;;4.70;99.90;;;;;;5002832;28;20511;-62
2022/01/28 02:22:44;;;;;;;17.20;3.80;;;4.70;99.90;;;;;;4983369;28;20105;-62
2022/01/28 02:25:26;;;;;;;23.13;4.18;;;4.60;99.90;;;;;;4964883;28;20464;-62
2022/01/28 02:27:54;;;;;;;17.20;3.38;;;4.70;99.90;;;;;;4965549;28;20061;-62
2022/01/28 02:30:20;;;;;;;20.40;3.63;;;4.70;99.90;;;;;;4961804;28;20051;-62
2022/01/28 02:32:49;;;;;;;23.48;4.10;;;4.90;99.90;;;;;;4959625;28;20553;-62
2022/01/28 02:35:15;;;;;;;20.98;3.75;;;4.90;99.90;;;;;;4971246;28;20073;-62
2022/01/28 02:37:41;;;;;;;28.02;4.72;;;5.00;99.90;;;;;;4965164;28;20047;-62
2022/01/28 02:40:08;;;;;;;19.20;4.00;;;5.00;99.90;;;;;;4957166;28;20051;-62
2022/01/28 02:42:49;;;;;;;23.27;4.70;;;5.00;99.90;;;;;;4976375;28;20112;-62
2022/01/28 02:45:25;;;;;;;23.95;4.07;;;5.10;99.90;;;;;;4965862;28;20499;-62
2022/01/28 02:47:57;;;;;;;16.08;3.97;;;5.20;99.90;;;;;;4961644;28;20047;-62
2022/01/28 02:50:26;;;;;;;26.38;4.68;;;5.10;99.90;;;;;;4972748;28;20047;-62
2022/01/28 02:53:03;;;;;;;27.33;4.57;;;5.10;99.90;;;;;;4973477;28;20093;-62
2022/01/28 02:55:35;;;;;;;18.42;3.83;;;5.10;99.90;;;;;;4978413;28;20050;-45
2022/01/28 02:58:22;;;;;;;14.85;3.40;;;5.00;99.90;;;;;;4947804;28;20131;-45
2022/01/28 03:00:49;;;;;;;20.65;4.30;;;5.00;99.90;;;;;;4963344;28;20054;-48
2022/01/28 03:03:22;;;;;;;22.52;4.32;;;4.90;99.90;;;;;;4955036;28;20055;-46
2022/01/28 03:05:49;;;;;;;24.55;4.03;;;4.90;99.90;;;;;;4992780;28;20149;-45
2022/01/28 03:08:16;;;;;;;18.63;3.97;;;4.80;99.90;;;;;;4955627;28;20495;-46
2022/01/28 03:15:35;;;;;;;22.02;3.53;;;4.70;99.90;;;;;;4972779;28;20100;-48
2022/01/28 03:18:19;;;;;;;18.45;4.05;;;4.70;99.90;;;;;;4952528;28;20421;-47
2022/01/28 03:23:17;;;;;;;17.55;3.72;;;4.70;99.90;;;;;;4967484;28;20498;-49
2022/01/28 03:25:43;;;;;;;21.33;3.80;;;4.80;99.90;;;;;;4961425;28;20051;-46
2022/01/28 03:28:10;;;;;;;24.42;4.05;;;4.80;99.90;;;;;;4976896;28;20055;-49
2022/01/28 03:30:37;;;;;;;23.38;4.32;;;4.80;99.90;;;;;;4964551;28;20125;-62
2022/01/28 03:33:03;;;;;;;18.42;3.40;;;4.80;99.90;;;;;;4966153;28;20046;-62
2022/01/28 03:35:31;;;;;;;22.90;3.85;;;4.70;99.90;;;;;;4947406;28;20073;-62
2022/01/28 03:38:00;;;;;;;22.55;3.65;;;4.70;99.90;;;;;;4970305;28;20051;-62
2022/01/28 03:40:28;;;;;;;19.10;3.60;;;4.70;99.90;;;;;;4943947;28;20452;-62
2022/01/28 03:42:54;;;;;;;15.25;3.00;;;4.70;99.90;;;;;;4961204;28;20583;-62
2022/01/28 03:45:20;;;;;;;19.20;3.95;;;4.70;99.90;;;;;;4944763;28;20533;-50
2022/01/28 03:47:46;;;;;;;19.15;4.35;;;4.70;99.90;;;;;;4962537;28;20073;-49
2022/01/28 03:50:12;;;;;;;15.45;3.60;;;4.60;99.90;;;;;;4961888;28;20075;-61
2022/01/28 03:52:38;;;;;;;20.60;4.38;;;4.60;99.90;;;;;;4959658;28;20109;-62
2022/01/28 03:55:05;;;;;;;15.52;3.88;;;4.40;99.90;;;;;;4950526;28;20530;-46
2022/01/28 03:57:31;;;;;;;20.90;4.32;;;4.40;99.90;;;;;;4966088;28;20416;-61
2022/01/28 03:59:57;;;;;;;18.30;3.88;;;4.30;99.90;;;;;;4962301;28;20050;-62
2022/01/28 04:02:27;;;;;;;20.60;3.40;;;4.30;99.90;;;;;;4963385;28;20051;-46
2022/01/28 04:12:53;;;;;;;15.35;3.38;;;4.20;99.90;;;;;;4942599;29;20055;-62
2022/01/28 04:15:36;;;;;;;19.67;4.10;;;4.20;99.90;;;;;;4949337;28;20078;-47
2022/01/28 04:18:03;;;;;;;19.27;3.15;;;4.20;99.90;;;;;;4961553;28;20051;-62
2022/01/28 04:20:32;;;;;;;24.25;4.82;;;4.30;99.90;;;;;;4972206;28;20812;-62
2022/01/28 04:22:58;;;;;;;19.52;3.53;;;4.30;99.90;;;;;;4921660;28;20051;-62
2022/01/28 04:25:24;;;;;;;21.58;4.10;;;4.30;99.90;;;;;;4956958;28;20047;-62
2022/01/28 04:27:50;;;;;;;23.27;4.00;;;4.30;99.90;;;;;;4960100;28;20509;-62
2022/01/28 04:30:16;;;;;;;24.65;4.18;;;4.40;99.90;;;;;;4956842;28;20039;-62
2022/01/28 04:32:46;;;;;;;22.75;4.32;;;4.30;99.90;;;;;;4962692;28;20050;-62
2022/01/28 04:35:12;;;;;;;22.25;4.30;;;4.30;99.90;;;;;;4928563;28;20567;-62
2022/01/28 04:37:50;;;;;;;22.95;4.30;;;4.30;99.90;;;;;;4960425;28;20171;-62
2022/01/28 04:45:18;;;;;;;23.02;5.00;;;4.40;99.90;;;;;;4963056;28;20062;-61
2022/01/28 04:50:44;;;;;;;25.27;4.15;;;4.50;99.90;;;;;;4961905;28;20584;-46
2022/01/28 04:56:08;;;;;;;29.38;5.22;;;4.50;99.90;;;;;;4967754;28;20062;-46
2022/01/28 05:27:18;;;;;;;22.35;4.55;;;4.40;99.90;;;;;;4974514;28;20047;-45
2022/01/28 05:29:44;;;;;;;22.88;4.65;;;4.40;99.90;;;;;;4936073;28;20051;-46
2022/01/28 05:32:10;;;;;;;26.08;5.18;;;4.40;99.90;;;;;;4959905;28;20119;-62
2022/01/28 05:34:38;;;;;;;36.92;6.03;;;4.40;99.90;;;;;;4958775;28;20503;-61
2022/01/28 05:37:06;;;;;;;21.17;4.45;;;4.50;99.90;;;;;;5022064;28;20530;-45
2022/01/28 05:39:32;;;;;;;21.98;5.57;;;4.50;99.90;;;;;;4959687;28;20079;-62
2022/01/28 05:41:58;;;;;;;18.55;4.22;;;4.50;99.90;;;;;;4955787;28;20050;-62
2022/01/28 05:44:25;;;;;;;28.50;5.38;;;4.50;99.90;;;;;;4960501;28;20051;-62
2022/01/28 05:46:52;;;;;;;24.88;4.85;;;4.50;99.90;;;;;;4963548;28;20053;-62
2022/01/28 05:49:18;;;;;;;22.73;4.30;;;4.50;99.90;;;;;;5049819;28;20077;-62
2022/01/28 05:51:44;;;;;;;23.70;4.65;;;4.50;99.90;;;;;;4963504;28;20050;-62
2022/01/28 05:54:11;;;;;;;21.67;4.90;;;4.50;99.90;;;;;;4965968;28;20046;-62
2022/01/28 05:56:37;;;;;;;28.27;4.95;;;4.50;99.90;;;;;;4976201;28;20138;-63
2022/01/28 05:59:04;;;;;;;26.80;4.93;;;4.40;99.90;;;;;;4966480;28;20048;-62
2022/01/28 06:01:30;;;;;;;29.23;4.82;;;4.40;99.90;;;;;;4978301;28;20138;-62
2022/01/28 06:03:56;;;;;;;23.30;5.22;;;4.30;99.90;;;;;;4962605;28;20058;-62
2022/01/28 06:06:23;;;;;;;23.27;5.25;;;4.20;99.90;;;;;;4957937;28;20082;-62
2022/01/28 06:08:52;;;;;;;25.13;4.82;;;4.20;99.90;;;;;;4969085;28;20098;-62
2022/01/28 06:11:18;;;;;;;22.23;5.10;;;4.20;99.90;;;;;;4960548;28;20051;-62
2022/01/28 06:13:45;;;;;;;29.45;6.28;;;4.30;99.90;;;;;;4959500;28;20138;-62
2022/01/28 06:16:16;;;;;;;23.83;4.72;;;4.30;99.90;;;;;;4960900;28;20063;-62
2022/01/28 06:18:43;;;;;;;26.65;5.68;;;4.40;99.90;;;;;;4945217;28;20077;-62
2022/01/28 06:21:10;;;;;;;20.05;4.55;;;4.50;99.90;;;;;;5001952;28;20504;-62
2022/01/28 06:23:37;;;;;;;28.20;5.50;;;4.50;99.90;;;;;;4991269;28;20513;-62
2022/01/28 06:26:04;;;;;;;26.17;5.55;;;4.60;99.90;;;;;;4977256;28;20058;-62
2022/01/28 06:28:30;;;;;;;24.30;5.68;;;4.60;99.90;;;;;;4945252;28;20124;-62
2022/01/28 06:30:56;;;;;;;28.15;6.53;;;4.60;99.90;;;;;;4978115;28;20055;-63
2022/01/28 06:33:23;;;;;;;23.27;5.50;;;4.60;99.90;;;;;;5012720;28;20046;-63
2022/01/28 06:35:49;;;;;;;24.58;5.70;;;4.70;99.90;;;;;;4979879;28;20046;-62
2022/01/28 06:38:16;;;;;;;22.95;5.15;;;4.70;99.90;;;;;;4960246;28;20455;-62
2022/01/28 06:40:42;;;;;;;30.48;5.72;;;4.70;99.90;;;;;;4987864;28;20402;-62
2022/01/28 06:43:10;;;;;;;25.75;5.75;;;4.80;99.90;;;;;;5037595;28;20069;-62
2022/01/28 06:45:39;;;;;;;30.02;7.13;;;4.80;99.90;;;;;;4959984;28;20042;-62
2022/01/28 06:48:07;;;;;;;32.22;5.25;;;4.80;99.90;;;;;;4987764;28;20033;-63
2022/01/28 06:50:34;;;;;;;28.80;5.43;;;4.80;99.90;;;;;;5028144;28;20068;-61
2022/01/28 06:53:00;;;;;;;25.70;5.45;;;4.80;99.90;;;;;;4978908;28;20112;-62
2022/01/28 06:55:26;;;;;;;20.45;5.13;;;4.80;99.90;;;;;;5023068;28;20124;-62
2022/01/28 06:57:54;;;;;;;23.33;5.43;;;4.80;99.90;;;;;;5066554;28;20060;-63
2022/01/28 07:00:20;;;;;;;22.10;4.47;;;4.80;99.90;;;;;;4975804;28;20058;-63
2022/01/28 07:02:46;;;;;;;22.83;4.50;;;4.80;99.90;;;;;;4948423;28;20078;-63
2022/01/28 07:05:12;;;;;;;23.90;5.20;;;4.80;99.90;;;;;;4964976;28;20047;-63
2022/01/28 07:07:38;;;;;;;23.15;5.55;;;4.80;99.90;;;;;;4949110;28;20051;-63
2022/01/28 07:10:05;;;;;;;25.08;5.28;;;4.80;99.90;;;;;;4977763;28;20135;-61
2022/01/28 07:12:31;;;;;;;24.17;5.78;;;4.80;99.90;;;;;;5001349;28;20126;-63
2022/01/28 07:14:57;;;;;;;26.15;5.05;;;4.80;99.90;;;;;;4964139;28;20120;-63
2022/01/28 07:17:23;;;;;;;22.98;4.75;;;4.70;99.90;;;;;;4954548;28;20541;-46
2022/01/28 07:19:50;;;;;;;22.17;5.03;;;4.60;99.90;;;;;;4949410;28;20054;-48
2022/01/28 07:22:16;;;;;;;24.20;4.88;;;4.60;99.90;;;;;;4971502;28;20050;-45
2022/01/28 07:24:42;;;;;;;21.42;4.63;;;4.60;99.90;;;;;;4965504;28;20054;-46
2022/01/28 07:27:09;;;;;;;19.83;4.82;;;4.50;99.90;;;;;;4948813;28;20085;-62
2022/01/28 07:29:35;;;;;;;23.20;5.68;;;4.50;99.90;;;;;;4981209;28;20047;-63
2022/01/28 07:32:02;;;;;;;26.02;5.25;;;4.40;99.90;;;;;;4970697;28;20109;-63
2022/01/28 07:34:28;;;;;;;28.88;5.43;;;4.40;99.90;;;;;;4999957;28;20150;-62
2022/01/28 07:36:54;;;;;;;19.80;4.18;;;4.40;99.90;;;;;;4992237;28;20403;-47
2022/01/28 07:39:20;;;;;;;27.95;4.45;;;4.40;99.90;;;;;;4947543;28;20142;-45
2022/01/28 07:41:46;;;;;;;24.58;4.75;;;4.40;99.90;;;;;;5031905;28;20055;-63
2022/01/28 07:44:12;;;;;;;25.85;5.13;;;4.40;99.90;;;;;;5060872;28;20056;-63
2022/01/28 07:46:39;;;;;;;23.92;4.82;;;4.40;99.90;;;;;;4944798;28;20136;-63
2022/01/28 07:49:05;;;;;;;26.17;4.35;;;4.40;99.90;;;;;;4955232;28;20212;-63
2022/01/28 07:51:32;;;;;;;18.30;5.22;;;4.50;99.90;;;;;;4949139;28;20163;-63
2022/01/28 07:53:58;;;;;;;22.05;4.75;;;4.60;99.90;;;;;;4964179;28;20050;-63
2022/01/28 07:56:25;;;;;;;20.40;5.13;;;4.60;99.90;;;;;;5028312;28;20415;-63
2022/01/28 07:58:51;;;;;;;21.73;4.28;;;4.70;99.90;;;;;;5070033;28;20059;-63
2022/01/28 08:01:17;;;;;;;19.00;4.38;;;4.70;99.90;;;;;;5056704;28;20060;-63
2022/01/28 08:03:43;;;;;;;22.15;5.05;;;4.70;99.90;;;;;;5065266;28;20105;-61
2022/01/28 08:06:09;;;;;;;22.58;5.03;;;4.80;99.90;;;;;;5024532;28;20065;-49
2022/01/28 08:08:35;;;;;;;23.42;4.18;;;4.70;99.90;;;;;;4961320;28;20043;-51
2022/01/28 08:11:02;;;;;;;17.92;4.75;;;4.70;99.90;;;;;;4946011;28;20054;-48
2022/01/28 08:13:28;;;;;;;26.85;5.57;;;4.70;99.90;;;;;;4976781;28;20050;-47
2022/01/28 08:15:55;;;;;;;26.00;5.13;;;4.70;99.90;;;;;;5026689;28;20041;-48
2022/01/28 08:18:21;;;;;;;25.35;4.10;;;4.70;99.90;;;;;;4947813;28;20062;-63
2022/01/28 08:20:47;;;;;;;22.05;4.57;;;4.70;99.90;;;;;;4950330;28;20058;-63
2022/01/28 08:23:14;;;;;;;24.08;5.75;;;4.70;99.90;;;;;;4945899;28;20047;-60
2022/01/28 08:25:40;;;;;;;19.92;4.18;;;4.70;99.90;;;;;;4971960;28;20575;-62
2022/01/28 08:28:07;;;;;;;24.88;4.32;;;4.70;99.90;;;;;;4966220;28;20047;-62
2022/01/28 08:30:37;;;;;;;22.67;4.40;;;4.80;99.90;;;;;;5008941;28;20499;-62
2022/01/28 08:33:05;;;;;;;23.27;4.83;;;4.80;99.90;;;;;;5065268;28;20044;-62
2022/01/28 08:35:36;;;;;;;22.55;4.38;;;4.70;99.90;;;;;;5065145;28;20060;-63
2022/01/28 08:38:02;;;;;;;20.15;4.00;;;4.60;99.90;;;;;;5017291;28;20054;-63
2022/01/28 08:40:29;;;;;;;20.63;4.35;;;4.60;99.90;;;;;;4962920;28;20064;-62
2022/01/28 08:42:56;;;;;;;21.02;5.35;;;4.70;99.90;;;;;;4989593;28;20397;-48
2022/01/28 08:45:22;;;;;;;25.55;5.32;;;4.80;99.90;;;;;;4964776;28;20425;-49
2022/01/28 08:47:49;;;;;;;25.38;4.85;;;5.00;99.90;;;;;;4993906;28;20062;-47
2022/01/28 08:50:15;;;;;;;21.95;4.57;;;5.30;99.90;;;;;;4999256;28;20537;-47
2022/01/28 08:52:46;;;;;;;26.70;4.57;;;5.70;99.90;;;;;;4961539;28;20062;-50
2022/01/28 08:55:13;;;;;;;19.90;4.10;;;6.20;99.90;;;;;;4958944;28;20379;-50
2022/01/28 08:57:43;;;;;;;22.00;3.97;;;6.60;99.90;;;;;;4970569;28;20065;-50
2022/01/28 09:00:12;;;;;;;23.70;5.10;;;7.10;99.90;;;;;;4972030;28;20053;-49
2022/01/28 09:02:39;;;;;;;18.50;4.18;;;7.40;99.90;;;;;;4930988;28;20046;-47
2022/01/28 09:05:06;;;;;;;24.00;4.97;;;7.60;99.90;;;;;;4963522;28;20398;-47
2022/01/28 09:07:32;;;;;;;18.95;5.28;;;7.60;99.90;;;;;;4946899;28;20058;-46
2022/01/28 09:10:04;;;;;;;23.85;4.78;;;7.80;99.90;;;;;;4958535;28;20078;-45
2022/01/28 09:14:57;;;;;;;26.48;4.53;;;8.20;99.90;;;;;;4967081;28;20397;-46
2022/01/28 09:17:27;;;;;;;23.73;5.15;;;8.50;99.90;;;;;;4964959;28;20054;-47
2022/01/28 09:19:53;;;;;;;25.10;5.15;;;8.80;99.90;;;;;;4945278;29;20073;-51
2022/01/28 09:22:20;;;;;;;18.45;5.38;;;9.20;99.90;;;;;;4945220;28;20500;-51
2022/01/28 09:24:46;;;;;;;23.63;5.18;;;9.60;99.90;;;;;;4944861;28;20047;-49
2022/01/28 09:27:12;;;;;;;24.80;4.93;;;9.50;99.90;;;;;;4968507;28;20050;-47
2022/01/28 09:29:38;;;;;;;20.85;5.13;;;9.80;99.90;;;;;;5008213;28;20389;-49
2022/01/28 09:32:05;;;;;;;21.10;4.60;;;9.70;99.90;;;;;;5064515;28;20133;-47
2022/01/28 09:34:31;;;;;;;25.15;4.88;;;9.70;99.90;;;;;;5064132;28;20047;-45
2022/01/28 09:36:58;;;;;;;22.23;4.35;;;10.10;99.90;;;;;;5073990;28;20598;-46
2022/01/28 09:39:24;;;;;;;21.30;4.90;;;10.00;99.90;;;;;;4970826;28;20032;-58
2022/01/28 09:41:52;;;;;;;20.92;4.15;;;10.00;99.90;;;;;;4962247;28;20051;-60
2022/01/28 09:44:19;;;;;;;20.63;5.25;;;10.30;99.90;;;;;;4962720;28;20470;-61
2022/01/28 09:46:45;;;;;;;20.85;4.45;;;10.20;99.90;;;;;;4963634;28;20045;-60
2022/01/28 09:49:12;;;;;;;18.58;4.43;;;10.10;99.90;;;;;;4962632;28;20051;-60
2022/01/28 09:51:38;;;;;;;23.85;4.30;;;10.10;99.90;;;;;;5031317;28;20044;-60
2022/01/28 09:54:05;;;;;;;19.58;4.85;;;9.60;99.90;;;;;;5021195;28;20504;-60
2022/01/28 09:56:31;;;;;;;27.88;6.13;;;9.40;99.90;;;;;;4994289;28;20129;-61
2022/01/28 09:58:59;;;;;;;27.85;5.57;;;8.90;99.90;;;;;;4953820;28;20059;-60
2022/01/28 10:01:26;;;;;;;21.92;4.82;;;8.40;99.90;;;;;;4963470;28;20058;-58
2022/01/28 10:04:00;;;;;;;23.73;5.25;;;8.10;99.90;;;;;;4962001;28;20042;-61
2022/01/28 10:06:31;;;;;;;21.40;4.72;;;7.80;99.90;;;;;;4965649;28;20580;-60
2022/01/28 10:08:59;;;;;;;21.90;5.15;;;7.80;99.90;;;;;;4943315;29;20085;-59
2022/01/28 10:11:25;;;;;;;20.17;4.25;;;7.70;99.90;;;;;;4961383;28;20047;-60
2022/01/28 10:13:54;;;;;;;27.00;5.43;;;7.80;99.90;;;;;;4963454;28;20062;-63
2022/01/28 10:16:26;;;;;;;24.08;5.93;;;7.80;99.90;;;;;;4962557;28;20059;-62
2022/01/28 10:18:53;;;;;;;20.65;4.88;;;8.00;99.90;;;;;;4968980;28;20047;-45
2022/01/28 10:21:42;;;;;;;27.25;4.82;;;7.90;99.90;;;;;;4962364;28;20168;-46
2022/01/28 10:24:18;;;;;;;26.17;5.07;;;7.70;99.90;;;;;;4962744;28;20055;-48
2022/01/28 10:26:49;;;;;;;22.40;4.13;;;7.70;99.90;;;;;;4964936;28;20082;-50
2022/01/28 10:29:23;;;;;;;23.48;5.13;;;7.70;99.90;;;;;;4955616;28;20134;-45
2022/01/28 10:31:49;;;;;;;23.52;5.47;;;7.80;99.90;;;;;;4965517;28;20063;-44
2022/01/28 10:34:19;;;;;;;30.15;6.40;;;7.90;99.90;;;;;;4933395;28;20058;-44
2022/01/28 10:36:47;;;;;;;17.75;4.35;;;8.00;99.90;;;;;;4945680;29;20056;-46
2022/01/28 10:39:22;;;;;;;16.90;4.15;;;8.00;99.90;;;;;;4965919;28;20042;-47
2022/01/28 10:41:54;;;;;;;23.33;5.50;;;8.00;99.90;;;;;;4965030;28;20376;-46
2022/01/28 10:44:21;;;;;;;19.00;5.68;;;8.20;99.90;;;;;;4966522;28;20051;-46
2022/01/28 10:46:57;;;;;;;24.02;5.28;;;8.50;99.90;;;;;;4947486;28;20043;-49
2022/01/28 10:49:34;;;;;;;22.23;4.82;;;8.70;99.90;;;;;;4949023;28;20065;-47
2022/01/28 10:52:29;;;;;;;26.10;4.65;;;8.70;99.90;;;;;;4973420;28;20094;-48
2022/01/28 10:54:58;;;;;;;23.58;5.15;;;8.90;99.90;;;;;;4945136;28;20055;-45
2022/01/28 10:57:25;;;;;;;20.30;4.40;;;9.30;99.90;;;;;;4962035;28;20531;-46
2022/01/28 10:59:52;;;;;;;29.27;5.45;;;9.70;99.90;;;;;;4955172;28;20405;-48
2022/01/28 11:02:18;;;;;;;25.92;4.95;;;10.40;99.90;;;;;;5010519;28;20043;-44
2022/01/28 11:04:46;;;;;;;31.50;5.38;;;10.40;99.90;;;;;;4966837;28;20061;-60
2022/01/28 11:07:12;;;;;;;24.95;5.75;;;10.40;99.90;;;;;;4965710;28;20046;-60
2022/01/28 11:09:40;;;;;;;20.55;4.78;;;10.20;99.90;;;;;;4980843;28;20062;-59
2022/01/28 11:12:07;;;;;;;17.88;4.95;;;10.10;99.90;;;;;;4947927;28;20058;-60
2022/01/28 11:14:33;;;;;;;17.63;4.50;;;9.90;99.90;;;;;;4946072;28;20062;-60
2022/01/28 11:16:59;;;;;;;16.63;4.13;;;9.90;99.90;;;;;;4959451;28;20058;-45
2022/01/28 11:19:31;;;;;;;23.13;4.85;;;10.00;99.90;;;;;;4956047;28;20061;-44
2022/01/28 11:22:20;;;;;;;21.92;5.55;;;9.90;99.90;;;;;;5021924;28;20051;-59
2022/01/28 11:25:25;;;;;;;22.75;5.68;;;10.00;99.90;;;;;;4950550;28;20425;-59
2022/01/28 11:27:51;;;;;;;21.73;5.32;;;10.20;99.90;;;;;;4969717;28;20471;-60
2022/01/28 11:30:22;;;;;;;21.27;4.60;;;9.80;99.90;;;;;;4966600;28;20046;-59
2022/01/28 11:33:01;;;;;;;18.67;4.53;;;10.00;99.90;;;;;;4968095;28;20058;-43
2022/01/28 11:35:37;;;;;;;23.65;4.13;;;10.30;99.90;;;;;;4961018;28;20045;-50
2022/01/28 11:38:26;;;;;;;23.73;4.63;;;10.80;99.90;;;;;;4962170;28;20051;-45
2022/01/28 11:40:53;;;;;;;17.20;4.90;;;11.20;99.90;;;;;;4964748;28;20374;-44
2022/01/28 11:43:22;;;;;;;24.08;4.65;;;11.70;99.90;;;;;;4983396;28;20043;-60
2022/01/28 11:46:04;;;;;;;16.75;4.50;;;11.70;99.90;;;;;;4966174;28;20087;-59
2022/01/28 11:48:53;;;;;;;27.98;6.40;;;11.00;99.90;;;;;;4960856;28;20089;-44
2022/01/28 11:51:21;;;;;;;25.05;5.15;;;10.20;99.90;;;;;;4962058;28;20043;-50
2022/01/28 11:53:56;;;;;;;25.65;5.80;;;10.00;99.90;;;;;;4974177;28;20524;-47
2022/01/28 11:56:24;;;;;;;20.13;4.50;;;10.00;99.90;;;;;;4961788;28;20035;-49
2022/01/28 11:59:05;;;;;;;20.42;5.00;;;9.90;99.90;;;;;;4986758;28;20067;-44
2022/01/28 12:01:40;;;;;;;22.08;4.90;;;10.00;99.90;;;;;;4962587;28;20047;-46
2022/01/28 12:04:38;;;;;;;21.50;4.40;;;9.80;99.90;;;;;;4968458;28;20161;-47
2022/01/28 12:07:10;;;;;;;21.88;5.13;;;9.80;99.90;;;;;;4948937;28;20057;-47
2022/01/28 12:09:38;;;;;;;18.77;4.30;;;9.80;99.90;;;;;;4986109;28;20468;-48
2022/01/28 12:12:09;;;;;;;24.75;5.57;;;10.40;99.90;;;;;;4999087;28;20127;-46
2022/01/28 12:15:17;;;;;;;24.02;5.32;;;10.60;99.90;;;;;;4992328;28;20068;-50
2022/01/28 12:17:45;;;;;;;19.35;4.03;;;11.00;99.90;;;;;;5003275;28;20053;-50
2022/01/28 12:20:34;;;;;;;22.30;4.30;;;11.70;99.90;;;;;;5013351;28;20572;-49
2022/01/28 12:23:03;;;;;;;20.25;4.80;;;12.00;99.90;;;;;;5000396;28;20137;-49
2022/01/28 12:25:50;;;;;;;21.55;3.88;;;11.60;97.90;;;;;;5000528;28;20044;-48
2022/01/28 12:28:41;;;;;;;18.27;4.68;;;11.00;84.90;;;;;;5009509;28;20051;-47
2022/01/28 12:31:19;;;;;;;19.02;3.80;;;10.90;99.90;;;;;;5000185;28;20381;-48
2022/01/28 12:33:49;;;;;;;18.73;4.03;;;10.40;99.90;;;;;;4993554;28;20043;-47
2022/01/28 12:36:22;;;;;;;18.73;3.80;;;10.20;99.90;;;;;;4999072;28;20147;-44
2022/01/28 12:41:24;;;;;;;18.23;5.05;;;9.80;99.90;;;;;;5003356;28;20055;-46
2022/01/28 12:43:51;;;;;;;21.08;4.03;;;10.00;99.90;;;;;;4987240;28;20033;-45
2022/01/28 12:46:18;;;;;;;16.23;3.67;;;9.70;99.90;;;;;;5007724;28;20194;-47
2022/01/28 12:48:49;;;;;;;15.13;4.15;;;10.10;99.90;;;;;;4988856;28;20074;-43
2022/01/28 12:51:16;;;;;;;22.85;4.32;;;10.80;94.20;;;;;;5017585;28;20501;-45
2022/01/28 12:53:45;;;;;;;16.45;3.97;;;11.10;82.40;;;;;;5013186;28;20151;-60
2022/01/28 12:56:14;;;;;;;19.23;4.63;;;11.80;91.50;;;;;;5007451;28;20066;-60
2022/01/28 12:58:49;;;;;;;18.88;3.88;;;11.90;86.60;;;;;;4964794;28;20063;-60
2022/01/28 13:01:17;;;;;;;15.07;3.70;;;11.90;70.40;;;;;;4962828;28;20046;-45
2022/01/28 13:09:15;;;;;;;17.25;4.22;;;12.50;69.70;;;;;;4969436;28;20143;-45
2022/01/28 13:11:58;;;;;;;19.60;4.35;;;12.50;69.10;;;;;;4974180;28;20054;-46
2022/01/28 13:14:27;;;;;;;18.13;3.95;;;12.30;70.30;;;;;;4945342;28;20155;-46
2022/01/28 13:16:54;;;;;;;20.15;3.40;;;12.40;70.20;;;;;;4977215;28;20046;-44
2022/01/28 13:19:20;;;;;;;19.40;4.70;;;12.10;76.30;;;;;;4958802;28;20116;-47
2022/01/28 13:21:49;;;;;;;18.58;4.60;;;11.60;77.10;;;;;;4983097;28;20052;-45
2022/01/28 13:24:18;;;;;;;22.20;4.13;;;11.50;85.20;;;;;;4956300;28;20051;-45
2022/01/28 13:27:05;;;;;;;24.10;5.38;;;11.90;82.50;;;;;;4993313;28;20051;-44
2022/01/28 13:29:48;;;;;;;19.58;4.30;;;11.90;78.10;;;;;;5012193;28;20501;-59
2022/01/28 13:32:28;;;;;;;17.60;3.67;;;11.60;76.40;;;;;;4959832;28;20062;-59
2022/01/28 13:34:57;;;;;;;18.30;3.97;;;11.00;88.30;;;;;;4944375;28;20071;-59
2022/01/28 13:37:53;;;;;;;17.40;4.85;;;10.50;98.70;;;;;;4955285;28;20051;-59
2022/01/28 13:40:26;;;;;;;20.55;5.60;;;10.10;99.90;;;;;;4972519;28;20108;-59
2022/01/28 13:42:56;;;;;;;19.40;4.63;;;9.70;99.90;;;;;;4962118;28;20090;-59
2022/01/28 13:45:36;;;;;;;20.52;6.82;;;9.40;99.90;;;;;;5014575;28;20039;-59
2022/01/28 13:48:06;;;;;;;19.65;4.70;;;9.40;99.90;;;;;;4996352;28;20067;-60
2022/01/28 13:50:41;;;;;;;21.52;4.07;;;9.30;99.90;;;;;;4997521;28;20127;-44
2022/01/28 13:54:15;;;;;;;15.05;3.78;;;9.00;99.90;;;;;;5003223;28;20124;-59
2022/01/28 13:56:06;;;;;;;12.95;3.20;;;8.90;99.90;;;;;;4983216;28;20055;-59
2022/01/28 13:58:53;;;;;;;17.30;4.03;;;9.30;99.90;;;;;;5013263;28;20419;-46
2022/01/28 14:01:22;;;;;;;22.45;4.05;;;9.50;99.90;;;;;;4996268;28;20060;-47
2022/01/28 14:03:50;;;;;;;24.63;4.75;;;10.00;99.90;;;;;;5007074;28;20053;-45
2022/01/28 14:06:18;;;;;;;17.45;3.33;;;10.40;99.90;;;;;;4961553;28;20373;-49
2022/01/28 14:08:54;;;;;;;20.30;3.42;;;10.70;99.90;;;;;;5041735;28;20041;-43
2022/01/28 14:11:49;;;;;;;15.95;4.65;;;10.60;99.90;;;;;;5044702;28;20529;-48
2022/01/28 14:14:33;;;;;;;20.38;3.90;;;10.50;99.90;;;;;;5036346;28;20520;-59
2022/01/28 14:17:04;;;;;;;15.15;3.92;;;10.50;99.90;;;;;;5006481;28;20065;-46
2022/01/28 14:19:32;;;;;;;;;;;10.30;99.90;;;;;;5007244;28;20154;-44
2022/01/28 14:21:59;;;;;;;14.98;3.30;;;10.20;99.90;;;;;;4983002;28;20381;-49
2022/01/28 14:24:28;;;;;;;22.25;3.95;;;10.20;99.90;;;;;;4993429;28;20050;-58
2022/01/28 14:29:49;;;;;;;16.85;3.25;;;10.00;99.90;;;;;;4999486;28;20058;-46
2022/01/28 14:32:18;;;;;;;16.40;4.10;;;9.60;99.90;;;;;;4965098;28;20109;-43
2022/01/28 14:34:46;;;;;;;18.35;3.38;;;9.70;99.90;;;;;;4948947;28;20099;-45